Time;durP1;ratioP1;P1;durP2;ratioP2;P2;SDS_P1;SDS_P2;PMS_P1;PMS_P2;Temp;Humidity;BMP_temperature;BMP_pressure;BME280_temperature;BME280_humidity;BME280_pressure;Samples;Min_cycle;Max_cycle;Signal;HPM_P1;HPM_P2
2023/03/23 00:00:16;;;;;;;6.20;5.30;;;10.50;26.70;;;;;;5055479;28;20443;-64
2023/03/23 00:02:43;;;;;;;5.70;4.53;;;10.50;99.90;;;;;;5053740;28;20532;-64
2023/03/23 00:05:11;;;;;;;6.87;4.67;;;10.50;99.90;;;;;;5056153;28;20911;-64
2023/03/23 00:07:45;;;;;;;6.27;4.70;;;10.40;99.90;;;;;;5056102;28;20537;-62
2023/03/23 00:10:12;;;;;;;6.50;4.10;;;10.50;99.90;;;;;;5055866;28;20467;-63
2023/03/23 00:12:41;;;;;;;6.07;3.97;;;10.50;99.90;;;;;;5055570;28;20489;-63
2023/03/23 00:15:12;;;;;;;5.10;4.20;;;10.50;99.90;;;;;;5055393;28;20458;-63
2023/03/23 00:17:40;;;;;;;5.10;4.50;;;10.60;1.00;;;;;;5055783;28;20520;-64
2023/03/23 00:20:10;;;;;;;9.27;6.20;;;10.60;1.00;;;;;;5054528;28;20543;-62
2023/03/23 00:22:38;;;;;;;5.77;4.53;;;10.60;1.00;;;;;;5058049;28;20508;-64
2023/03/23 00:25:08;;;;;;;5.40;3.83;;;10.60;99.90;;;;;;5052012;28;20462;-62
2023/03/23 00:27:35;;;;;;;4.77;3.53;;;10.70;99.90;;;;;;5055282;28;20463;-63
2023/03/23 00:30:02;;;;;;;4.37;3.83;;;10.70;99.90;;;;;;5049389;28;20466;-63
2023/03/23 00:32:32;;;;;;;7.97;4.10;;;10.70;99.90;;;;;;5054674;28;20489;-63
2023/03/23 00:34:59;;;;;;;6.97;4.00;;;10.70;99.90;;;;;;5055039;28;20458;-63
2023/03/23 00:37:26;;;;;;;5.13;3.90;;;10.80;99.90;;;;;;5054536;28;20462;-64
2023/03/23 00:39:57;;;;;;;5.03;3.90;;;10.80;84.90;;;;;;5054541;28;20752;-63
2023/03/23 00:42:24;;;;;;;5.90;4.00;;;10.80;19.20;;;;;;5054797;28;20466;-63
2023/03/23 00:44:53;;;;;;;6.90;4.00;;;10.80;1.00;;;;;;5054870;28;20460;-59
2023/03/23 00:47:20;;;;;;;7.70;3.63;;;10.90;1.00;;;;;;5054488;28;20759;-62
2023/03/23 00:49:47;;;;;;;8.53;3.90;;;10.90;1.00;;;;;;5051403;28;20476;-63
2023/03/23 00:52:14;;;;;;;7.83;3.80;;;10.90;1.00;;;;;;5055051;28;20485;-62
2023/03/23 00:54:41;;;;;;;8.87;3.47;;;10.90;1.00;;;;;;5055475;28;20784;-63
2023/03/23 00:57:10;;;;;;;7.23;3.93;;;11.00;1.00;;;;;;5054413;28;20525;-59
2023/03/23 00:59:37;;;;;;;5.80;3.70;;;11.00;1.00;;;;;;5057099;28;20465;-61
2023/03/23 01:02:04;;;;;;;5.03;4.37;;;11.00;1.00;;;;;;5054275;28;20862;-63
2023/03/23 01:04:31;;;;;;;5.30;3.60;;;11.00;1.00;;;;;;5054162;28;20888;-61
2023/03/23 01:07:00;;;;;;;5.57;3.80;;;11.10;1.00;;;;;;5054479;28;20551;-62
2023/03/23 01:09:27;;;;;;;3.60;3.00;;;11.10;1.00;;;;;;5053958;28;20763;-60
2023/03/23 01:11:56;;;;;;;5.40;3.73;;;11.10;1.00;;;;;;5051534;28;20457;-62
2023/03/23 01:14:25;;;;;;;4.10;3.50;;;11.10;1.00;;;;;;5055585;28;20774;-62
2023/03/23 01:16:52;;;;;;;8.73;3.87;;;11.10;1.00;;;;;;5058360;28;20502;-63
2023/03/23 01:19:20;;;;;;;3.93;3.33;;;11.10;1.00;;;;;;5057723;28;20458;-60
2023/03/23 01:21:47;;;;;;;3.60;3.20;;;11.10;1.00;;;;;;5057486;28;20481;-62
2023/03/23 01:24:14;;;;;;;4.10;3.30;;;11.10;1.00;;;;;;5058621;28;20465;-62
2023/03/23 01:26:41;;;;;;;5.40;3.20;;;11.10;1.00;;;;;;5058516;28;20498;-62
2023/03/23 01:29:08;;;;;;;4.17;3.17;;;11.10;1.00;;;;;;5059760;28;20476;-62
2023/03/23 01:31:37;;;;;;;6.13;3.10;;;11.10;1.00;;;;;;5059466;28;20458;-62
2023/03/23 01:34:04;;;;;;;6.60;3.63;;;11.00;1.00;;;;;;5058183;28;20942;-62
2023/03/23 01:36:32;;;;;;;6.73;3.50;;;11.00;1.00;;;;;;5060307;28;20462;-63
2023/03/23 01:39:02;;;;;;;5.57;3.63;;;11.00;1.00;;;;;;5059122;28;20458;-61
2023/03/23 01:41:29;;;;;;;5.00;3.60;;;11.00;1.00;;;;;;5059771;28;20469;-62
2023/03/23 01:43:59;;;;;;;5.07;3.60;;;10.90;1.00;;;;;;5059718;28;20920;-63
2023/03/23 01:46:27;;;;;;;4.70;3.63;;;10.90;1.00;;;;;;5060883;28;20459;-62
2023/03/23 01:48:58;;;;;;;5.90;3.83;;;10.90;1.00;;;;;;5059418;28;20528;-62
2023/03/23 01:51:27;;;;;;;5.20;3.97;;;10.90;1.00;;;;;;5059188;28;20459;-63
2023/03/23 01:53:57;;;;;;;7.07;3.60;;;10.90;1.00;;;;;;5059143;28;20865;-63
2023/03/23 01:56:29;;;;;;;4.47;3.30;;;10.80;1.00;;;;;;5059462;28;20515;-62
2023/03/23 01:58:57;;;;;;;4.50;3.50;;;10.80;22.30;;;;;;5060084;28;20791;-61
2023/03/23 02:01:25;;;;;;;5.00;3.60;;;10.80;69.70;;;;;;5058425;28;20485;-62
2023/03/23 02:04:02;;;;;;;4.47;3.20;;;10.80;90.40;;;;;;5068138;28;20468;-63
2023/03/23 02:06:29;;;;;;;5.20;4.00;;;10.80;99.90;;;;;;5057921;28;20454;-62
2023/03/23 02:08:57;;;;;;;6.33;3.57;;;10.70;99.90;;;;;;5058268;28;20462;-62
2023/03/23 02:11:24;;;;;;;5.00;4.40;;;10.70;99.90;;;;;;5058901;28;20743;-63
2023/03/23 02:13:52;;;;;;;5.10;3.90;;;10.60;99.90;;;;;;5059269;28;20469;-63
2023/03/23 02:16:28;;;;;;;4.57;4.10;;;10.60;1.00;;;;;;5058527;28;20456;-62
2023/03/23 02:19:07;;;;;;;5.13;3.70;;;10.60;1.00;;;;;;5058206;28;20436;-63
2023/03/23 02:22:21;;;;;;;4.40;4.00;;;10.60;1.00;;;;;;5059193;28;20469;-62
2023/03/23 02:25:06;;;;;;;4.67;3.80;;;10.50;99.90;;;;;;4967182;28;20496;-62
2023/03/23 02:28:07;;;;;;;5.70;4.00;;;10.50;1.00;;;;;;5056293;28;20462;-62
2023/03/23 02:30:50;;;;;;;8.20;4.60;;;10.40;1.00;;;;;;5050528;28;20457;-62
2023/03/23 02:33:38;;;;;;;4.30;3.90;;;10.50;1.00;;;;;;5065860;28;20484;-61
2023/03/23 02:36:14;;;;;;;6.43;4.40;;;10.50;99.90;;;;;;5057412;28;20458;-62
2023/03/23 02:38:50;;;;;;;4.73;4.23;;;10.40;1.00;;;;;;5057497;28;20428;-60
2023/03/23 02:41:22;;;;;;;6.00;4.80;;;10.40;1.00;;;;;;5057419;28;20844;-60
2023/03/23 02:43:51;;;;;;;5.33;3.80;;;10.40;92.90;;;;;;5058423;28;20516;-61
2023/03/23 02:46:20;;;;;;;4.97;3.90;;;10.40;99.90;;;;;;5057788;28;20454;-61
2023/03/23 02:48:53;;;;;;;4.63;4.03;;;10.40;99.90;;;;;;5071492;28;20461;-58
2023/03/23 02:51:23;;;;;;;5.93;4.37;;;10.40;99.90;;;;;;5077517;28;20778;-61
2023/03/23 02:53:52;;;;;;;4.30;3.90;;;10.40;99.90;;;;;;5074890;28;20493;-59
2023/03/23 02:56:21;;;;;;;5.40;4.00;;;10.40;99.90;;;;;;5057332;28;20463;-61
2023/03/23 02:58:49;;;;;;;7.70;4.60;;;10.30;99.90;;;;;;5055203;28;20457;-61
2023/03/23 03:02:00;;;;;;;4.70;4.03;;;10.30;99.90;;;;;;5055338;28;20455;-61
2023/03/23 03:04:31;;;;;;;7.77;4.20;;;10.30;99.90;;;;;;5053301;28;20469;-61
2023/03/23 03:07:24;;;;;;;4.80;3.80;;;10.30;99.90;;;;;;5076223;28;20464;-61
2023/03/23 03:09:55;;;;;;;5.00;4.40;;;10.30;99.90;;;;;;5067083;28;20902;-62
2023/03/23 03:12:31;;;;;;;6.20;4.57;;;10.30;99.90;;;;;;5077118;28;20881;-62
2023/03/23 03:15:09;;;;;;;5.50;4.73;;;10.30;99.90;;;;;;5076731;28;21146;-59
2023/03/23 03:17:43;;;;;;;5.70;4.67;;;10.30;99.90;;;;;;5076924;28;20471;-61
2023/03/23 03:20:13;;;;;;;4.87;4.43;;;10.30;1.00;;;;;;5076845;28;20497;-60
2023/03/23 03:22:44;;;;;;;6.33;4.90;;;10.40;99.90;;;;;;5077161;28;20461;-56
2023/03/23 03:25:13;;;;;;;7.73;4.33;;;10.40;99.90;;;;;;5070953;28;20512;-61
2023/03/23 03:27:41;;;;;;;4.30;3.80;;;10.40;1.00;;;;;;5055776;28;20888;-60
2023/03/23 03:30:12;;;;;;;6.03;3.90;;;10.40;1.00;;;;;;5056934;28;20494;-57
2023/03/23 03:32:46;;;;;;;5.80;4.20;;;10.40;1.00;;;;;;5056866;28;20465;-58
2023/03/23 03:35:15;;;;;;;6.50;4.23;;;10.40;14.20;;;;;;5057235;28;20586;-61
2023/03/23 03:37:43;;;;;;;5.67;3.70;;;10.40;1.00;;;;;;5056122;28;20512;-59
2023/03/23 03:40:13;;;;;;;4.53;4.07;;;10.40;99.90;;;;;;5058098;28;20810;-57
2023/03/23 03:42:41;;;;;;;4.03;3.37;;;10.40;99.90;;;;;;5058405;28;20433;-60
2023/03/23 03:45:10;;;;;;;7.00;4.03;;;10.50;99.90;;;;;;5076172;28;20478;-56
2023/03/23 03:47:37;;;;;;;5.53;4.00;;;10.40;99.90;;;;;;5076452;28;20461;-60
2023/03/23 03:50:06;;;;;;;4.33;3.57;;;10.50;99.90;;;;;;5076447;28;20453;-61
2023/03/23 03:52:35;;;;;;;4.60;3.90;;;10.50;73.30;;;;;;5076254;28;20499;-57
2023/03/23 03:55:02;;;;;;;4.30;3.30;;;10.50;70.10;;;;;;5058701;28;20497;-59
2023/03/23 03:57:29;;;;;;;4.47;3.37;;;10.50;50.20;;;;;;5056773;28;20473;-55
2023/03/23 03:59:56;;;;;;;3.90;3.50;;;10.50;24.50;;;;;;5056349;28;20469;-60
2023/03/23 04:02:24;;;;;;;5.13;3.83;;;10.50;20.10;;;;;;5056441;28;20465;-61
2023/03/23 04:04:52;;;;;;;4.73;3.50;;;10.50;3.50;;;;;;5056879;28;20727;-57
2023/03/23 04:07:21;;;;;;;3.00;2.70;;;10.50;1.00;;;;;;5057571;28;20466;-59
2023/03/23 04:09:49;;;;;;;6.07;3.53;;;10.50;1.00;;;;;;5056281;28;20466;-54
2023/03/23 04:12:17;;;;;;;3.50;3.07;;;10.50;1.00;;;;;;5056343;28;20466;-56
2023/03/23 04:14:44;;;;;;;4.33;3.60;;;10.50;1.00;;;;;;5055736;28;20494;-60
2023/03/23 04:17:11;;;;;;;4.27;3.03;;;10.50;1.00;;;;;;5056325;28;20682;-59
2023/03/23 04:19:39;;;;;;;3.80;3.00;;;10.50;1.00;;;;;;5066256;28;20446;-58
2023/03/23 04:22:07;;;;;;;3.93;3.10;;;10.50;1.00;;;;;;5076195;28;20465;-56
2023/03/23 04:24:51;;;;;;;6.23;3.67;;;10.50;1.00;;;;;;5077087;28;20874;-59
2023/03/23 04:27:18;;;;;;;4.20;3.03;;;10.50;1.00;;;;;;5076579;28;20461;-60
2023/03/23 04:29:48;;;;;;;5.10;3.43;;;10.50;1.00;;;;;;5068454;28;20490;-55
2023/03/23 04:32:17;;;;;;;4.27;3.47;;;10.50;1.00;;;;;;5056880;28;20906;-58
2023/03/23 04:34:44;;;;;;;4.70;2.80;;;10.50;1.00;;;;;;5056066;28;20494;-58
2023/03/23 04:37:13;;;;;;;3.53;2.83;;;10.50;1.00;;;;;;5056234;28;20485;-60
2023/03/23 04:39:41;;;;;;;3.70;3.17;;;10.50;1.00;;;;;;5057257;28;20516;-57
2023/03/23 04:42:11;;;;;;;3.70;3.30;;;10.50;1.00;;;;;;5074495;28;20465;-58
2023/03/23 04:44:56;;;;;;;4.43;3.40;;;10.50;1.00;;;;;;5075914;28;20461;-61
2023/03/23 04:47:24;;;;;;;6.00;3.90;;;10.50;1.00;;;;;;5060255;28;20481;-62
2023/03/23 04:49:51;;;;;;;4.10;3.20;;;10.50;1.00;;;;;;5057705;28;20466;-60
2023/03/23 04:52:20;;;;;;;3.53;2.57;;;10.50;1.00;;;;;;5058732;28;20450;-59
2023/03/23 04:54:47;;;;;;;4.13;3.40;;;10.40;1.00;;;;;;5058487;28;20500;-61
2023/03/23 04:57:16;;;;;;;3.53;3.13;;;10.50;1.00;;;;;;5039900;28;20513;-62
2023/03/23 04:59:43;;;;;;;4.57;3.10;;;10.50;1.00;;;;;;5040056;28;20459;-61
2023/03/23 05:02:10;;;;;;;4.10;2.80;;;10.40;1.00;;;;;;5058979;28;20462;-60
2023/03/23 05:04:38;;;;;;;3.63;2.60;;;10.50;1.00;;;;;;5061443;28;20437;-61
2023/03/23 05:07:06;;;;;;;3.20;2.70;;;10.50;1.00;;;;;;5060322;28;20466;-61
2023/03/23 05:09:33;;;;;;;4.63;3.53;;;10.50;1.00;;;;;;5059600;28;20516;-62
2023/03/23 05:12:05;;;;;;;6.77;3.20;;;10.50;1.00;;;;;;5059639;28;20461;-63
2023/03/23 05:14:34;;;;;;;3.40;2.80;;;10.50;1.00;;;;;;5071817;28;20543;-62
2023/03/23 05:17:01;;;;;;;4.30;3.43;;;10.50;1.00;;;;;;5079164;28;20973;-63
2023/03/23 05:19:29;;;;;;;5.43;3.57;;;10.50;1.00;;;;;;5078573;28;20461;-62
2023/03/23 05:22:02;;;;;;;3.67;3.27;;;10.50;1.00;;;;;;5061350;28;20803;-63
2023/03/23 05:24:32;;;;;;;4.23;2.73;;;10.60;1.00;;;;;;5065746;28;20489;-64
2023/03/23 05:27:00;;;;;;;4.83;3.40;;;10.50;1.00;;;;;;5077283;28;20499;-64
2023/03/23 05:29:30;;;;;;;5.00;2.80;;;10.60;1.00;;;;;;5078245;28;20497;-63
2023/03/23 05:31:59;;;;;;;4.10;3.70;;;10.60;1.00;;;;;;5062749;28;20899;-63
2023/03/23 05:34:28;;;;;;;3.63;3.13;;;10.60;1.00;;;;;;5058814;28;20490;-64
2023/03/23 05:36:57;;;;;;;5.13;3.50;;;10.60;1.00;;;;;;5058839;28;20831;-63
2023/03/23 05:39:24;;;;;;;5.60;3.20;;;10.60;1.00;;;;;;5066710;28;20552;-63
2023/03/23 05:41:51;;;;;;;5.40;3.37;;;10.70;1.00;;;;;;5074336;28;20468;-64
2023/03/23 05:44:18;;;;;;;7.93;3.10;;;10.70;1.00;;;;;;5058520;28;20437;-64
2023/03/23 05:46:45;;;;;;;3.80;3.20;;;10.70;1.00;;;;;;5057301;28;20515;-63
2023/03/23 05:49:15;;;;;;;3.97;3.43;;;10.70;1.00;;;;;;5057497;28;20463;-64
2023/03/23 05:51:43;;;;;;;3.80;3.10;;;10.80;1.00;;;;;;5057214;28;20441;-65
2023/03/23 05:54:11;;;;;;;5.27;4.00;;;10.80;1.00;;;;;;5057690;28;20772;-65
2023/03/23 05:56:38;;;;;;;4.73;3.20;;;10.80;1.00;;;;;;5068369;28;20465;-64
2023/03/23 05:59:05;;;;;;;3.53;2.83;;;10.80;1.00;;;;;;5059814;28;20474;-65
2023/03/23 06:01:32;;;;;;;3.30;3.00;;;10.80;1.00;;;;;;5055906;28;20467;-63
2023/03/23 06:04:00;;;;;;;4.23;2.93;;;10.80;1.00;;;;;;5055738;28;20451;-65
2023/03/23 06:06:29;;;;;;;6.93;3.30;;;10.80;1.00;;;;;;5071599;28;20459;-66
2023/03/23 06:08:56;;;;;;;4.10;3.07;;;10.80;1.00;;;;;;5076408;28;20482;-65
2023/03/23 06:11:24;;;;;;;4.57;3.30;;;10.80;1.00;;;;;;5076730;28;20700;-65
2023/03/23 06:13:51;;;;;;;3.83;3.13;;;10.90;1.00;;;;;;5076448;28;20500;-67
2023/03/23 06:16:18;;;;;;;4.40;3.70;;;10.90;1.00;;;;;;5065733;28;20496;-66
2023/03/23 06:18:46;;;;;;;4.13;3.23;;;10.80;1.00;;;;;;5055048;28;20805;-66
2023/03/23 06:21:13;;;;;;;7.50;3.97;;;10.90;1.00;;;;;;5057016;28;20524;-64
2023/03/23 06:23:42;;;;;;;3.57;3.27;;;10.90;1.00;;;;;;5057113;28;20466;-65
2023/03/23 06:26:10;;;;;;;6.30;3.70;;;10.90;1.00;;;;;;5056478;28;20532;-65
2023/03/23 06:28:38;;;;;;;7.83;6.40;;;10.90;1.00;;;;;;5056169;28;20513;-66
2023/03/23 06:31:06;;;;;;;9.67;6.30;;;11.00;1.00;;;;;;5056140;28;20436;-63
2023/03/23 06:33:35;;;;;;;7.53;5.57;;;11.00;1.00;;;;;;5055874;28;20548;-65
2023/03/23 06:36:03;;;;;;;4.93;3.90;;;11.00;1.00;;;;;;5053563;28;20753;-65
2023/03/23 06:38:31;;;;;;;9.60;7.07;;;11.10;1.00;;;;;;5052168;28;21176;-64
2023/03/23 06:40:59;;;;;;;5.17;4.40;;;11.10;1.00;;;;;;5053759;28;20462;-64
2023/03/23 06:43:26;;;;;;;4.23;3.83;;;11.10;1.00;;;;;;5054844;28;20449;-65
2023/03/23 06:45:54;;;;;;;6.70;3.90;;;11.10;1.00;;;;;;5056818;28;20785;-65
2023/03/23 06:48:21;;;;;;;4.60;3.60;;;11.10;1.00;;;;;;5054595;28;20458;-64
2023/03/23 06:50:48;;;;;;;5.80;3.83;;;11.20;1.00;;;;;;5055677;28;20469;-65
2023/03/23 06:53:16;;;;;;;6.80;4.40;;;11.20;1.00;;;;;;5062163;28;20541;-64
2023/03/23 06:55:45;;;;;;;8.23;4.77;;;11.20;1.00;;;;;;5057606;28;20785;-63
2023/03/23 06:58:13;;;;;;;4.73;3.00;;;11.30;1.00;;;;;;5055908;28;20523;-62
2023/03/23 07:00:41;;;;;;;7.80;5.20;;;11.30;1.00;;;;;;5055890;28;20472;-64
2023/03/23 07:03:09;;;;;;;9.03;5.20;;;11.30;1.00;;;;;;5053546;28;20501;-66
2023/03/23 07:05:36;;;;;;;8.33;5.90;;;11.30;1.00;;;;;;5054783;28;20470;-64
2023/03/23 07:08:04;;;;;;;6.93;3.80;;;11.30;1.00;;;;;;5054756;28;20819;-64
2023/03/23 07:10:32;;;;;;;5.87;3.63;;;11.40;1.00;;;;;;5054769;28;20448;-62
2023/03/23 07:13:00;;;;;;;9.23;4.33;;;11.40;1.00;;;;;;5063361;28;20485;-63
2023/03/23 07:15:28;;;;;;;4.50;3.50;;;11.50;1.00;;;;;;5044365;28;20498;-63
2023/03/23 07:17:55;;;;;;;8.00;3.27;;;11.50;1.00;;;;;;5056546;28;20476;-63
2023/03/23 07:20:22;;;;;;;11.80;3.57;;;11.50;1.00;;;;;;5055297;28;20470;-62
2023/03/23 07:22:50;;;;;;;5.10;4.10;;;11.50;1.00;;;;;;5055736;28;20459;-61
2023/03/23 07:25:18;;;;;;;5.07;3.60;;;11.50;1.00;;;;;;5065277;28;20457;-62
2023/03/23 07:27:46;;;;;;;5.50;3.60;;;11.50;1.00;;;;;;5056543;28;20517;-62
2023/03/23 07:30:14;;;;;;;5.20;3.43;;;11.60;1.00;;;;;;5057273;28;20486;-62
2023/03/23 07:32:43;;;;;;;3.90;3.00;;;11.60;1.00;;;;;;5056267;28;20466;-64
2023/03/23 07:35:11;;;;;;;5.43;3.57;;;11.70;1.00;;;;;;5055830;28;20950;-62
2023/03/23 07:37:38;;;;;;;5.50;3.10;;;11.70;1.00;;;;;;5062364;28;20465;-61
2023/03/23 07:40:14;;;;;;;3.30;2.70;;;11.70;1.00;;;;;;5056579;28;20462;-62
2023/03/23 07:42:42;;;;;;;7.47;3.00;;;11.80;1.00;;;;;;5056713;28;20472;-60
2023/03/23 07:45:11;;;;;;;4.30;3.13;;;11.90;1.00;;;;;;5056104;28;20469;-62
2023/03/23 07:47:38;;;;;;;5.70;2.70;;;11.90;1.00;;;;;;5058081;28;20469;-62
2023/03/23 07:50:08;;;;;;;4.53;3.50;;;11.90;99.90;;;;;;5058563;28;20476;-62
2023/03/23 07:52:36;;;;;;;5.00;3.20;;;12.00;99.90;;;;;;5055504;28;20440;-61
2023/03/23 07:55:04;;;;;;;4.63;3.20;;;12.00;99.90;;;;;;5055159;28;20497;-61
2023/03/23 07:57:33;;;;;;;4.97;3.10;;;12.00;99.90;;;;;;5068047;28;20470;-62
2023/03/23 08:00:03;;;;;;;5.00;3.23;;;12.00;99.90;;;;;;5061154;28;20483;-61
2023/03/23 08:02:31;;;;;;;4.00;3.20;;;12.10;99.90;;;;;;5068873;28;20479;-61
2023/03/23 08:05:00;;;;;;;4.03;3.20;;;12.10;99.90;;;;;;5055702;28;20466;-61
2023/03/23 08:07:29;;;;;;;5.80;3.13;;;12.00;99.90;;;;;;5054537;28;20564;-61
2023/03/23 08:09:56;;;;;;;5.43;3.40;;;12.10;99.90;;;;;;5056090;28;20444;-62
2023/03/23 08:12:23;;;;;;;5.50;3.37;;;12.10;99.90;;;;;;5057299;28;20894;-61
2023/03/23 08:14:51;;;;;;;7.03;4.73;;;12.00;99.90;;;;;;5056787;28;20490;-61
2023/03/23 08:17:18;;;;;;;5.80;5.10;;;12.10;99.90;;;;;;5055422;28;20466;-61
2023/03/23 08:19:46;;;;;;;6.80;5.47;;;12.00;99.90;;;;;;5062121;28;20564;-61
2023/03/23 08:22:13;;;;;;;6.07;3.60;;;12.10;99.90;;;;;;5055892;28;20466;-61
2023/03/23 08:24:42;;;;;;;4.33;3.30;;;12.10;99.90;;;;;;5058184;28;20736;-61
2023/03/23 08:27:09;;;;;;;7.67;4.10;;;12.10;99.90;;;;;;5070413;28;20882;-62
2023/03/23 08:29:37;;;;;;;4.13;3.50;;;12.20;99.90;;;;;;5058598;28;20500;-61
2023/03/23 08:32:05;;;;;;;4.93;3.37;;;12.20;99.90;;;;;;5059761;28;20797;-59
2023/03/23 08:34:32;;;;;;;3.93;2.57;;;12.20;99.90;;;;;;5060371;28;20453;-61
2023/03/23 08:36:59;;;;;;;5.53;3.30;;;12.30;99.90;;;;;;5059290;28;20470;-61
2023/03/23 08:39:27;;;;;;;4.60;2.70;;;12.40;99.90;;;;;;5060283;28;20528;-61
2023/03/23 08:41:56;;;;;;;8.80;3.60;;;12.30;99.90;;;;;;5060131;28;20477;-59
2023/03/23 08:44:23;;;;;;;4.13;2.93;;;12.40;99.90;;;;;;5059414;28;20472;-59
2023/03/23 08:46:54;;;;;;;5.20;3.20;;;12.40;99.90;;;;;;5058067;28;20462;-60
2023/03/23 08:49:21;;;;;;;4.57;2.83;;;12.40;99.90;;;;;;5058702;28;20520;-61
2023/03/23 08:51:49;;;;;;;10.73;3.13;;;12.40;99.90;;;;;;5058412;28;20801;-59
2023/03/23 08:54:16;;;;;;;8.13;3.30;;;12.40;99.90;;;;;;5059238;28;20644;-60
2023/03/23 08:56:44;;;;;;;4.50;2.93;;;12.50;99.90;;;;;;5058330;28;20809;-60
2023/03/23 08:59:12;;;;;;;4.80;2.63;;;12.50;99.90;;;;;;5058526;28;20466;-57
2023/03/23 09:01:40;;;;;;;3.33;2.80;;;12.60;99.90;;;;;;5059944;28;20468;-60
2023/03/23 09:04:08;;;;;;;5.43;2.87;;;12.70;99.90;;;;;;5059874;28;20461;-60
2023/03/23 09:06:36;;;;;;;5.10;3.20;;;12.80;99.90;;;;;;5059376;28;20896;-60
2023/03/23 09:09:06;;;;;;;5.97;3.13;;;12.80;99.90;;;;;;5059285;28;20466;-59
2023/03/23 09:11:33;;;;;;;4.57;2.87;;;12.80;99.90;;;;;;5059973;28;20879;-60
2023/03/23 09:14:01;;;;;;;5.83;2.90;;;12.60;99.90;;;;;;5060309;28;20503;-60
2023/03/23 09:16:31;;;;;;;4.40;2.90;;;12.60;99.90;;;;;;5064592;28;21004;-60
2023/03/23 09:18:58;;;;;;;7.53;4.40;;;12.60;99.90;;;;;;5063626;28;20762;-59
2023/03/23 09:21:26;;;;;;;6.90;3.07;;;12.60;99.90;;;;;;5059461;28;20462;-55
2023/03/23 09:23:58;;;;;;;5.57;3.07;;;12.60;99.90;;;;;;5071926;28;20514;-60
2023/03/23 09:26:25;;;;;;;6.20;3.10;;;12.60;99.90;;;;;;5060028;28;20577;-59
2023/03/23 09:28:52;;;;;;;4.47;3.00;;;12.60;99.90;;;;;;5059080;28;20485;-60
2023/03/23 09:31:22;;;;;;;4.97;3.10;;;12.60;99.90;;;;;;5059976;28;20793;-59
2023/03/23 09:33:51;;;;;;;4.97;2.83;;;12.60;99.90;;;;;;5059788;28;20561;-60
2023/03/23 09:36:21;;;;;;;6.70;3.30;;;12.70;99.90;;;;;;5063659;28;20580;-60
2023/03/23 09:38:48;;;;;;;7.63;3.20;;;12.70;99.90;;;;;;5059266;28;20441;-60
2023/03/23 09:41:33;;;;;;;7.20;3.13;;;12.70;99.90;;;;;;5059966;28;20527;-60
2023/03/23 09:44:06;;;;;;;4.77;3.07;;;12.90;99.90;;;;;;5059802;28;20725;-59
2023/03/23 09:46:53;;;;;;;7.53;3.23;;;13.00;99.90;;;;;;5059664;28;20828;-61
2023/03/23 09:49:26;;;;;;;4.40;2.93;;;13.20;99.90;;;;;;5071140;28;20921;-60
2023/03/23 09:51:56;;;;;;;5.40;2.80;;;13.20;99.90;;;;;;5058983;28;20557;-59
2023/03/23 09:54:27;;;;;;;6.80;2.70;;;13.20;99.90;;;;;;5059015;28;20433;-61
2023/03/23 09:56:56;;;;;;;5.17;2.70;;;13.20;99.90;;;;;;5058822;28;20492;-60
2023/03/23 09:59:29;;;;;;;5.20;2.83;;;13.20;99.90;;;;;;5069969;28;20527;-59
2023/03/23 10:02:05;;;;;;;6.20;3.17;;;13.20;99.90;;;;;;5064151;28;20470;-61
2023/03/23 10:04:39;;;;;;;5.73;3.23;;;13.20;99.90;;;;;;5058266;28;20488;-60
2023/03/23 10:07:12;;;;;;;7.70;3.30;;;13.20;99.90;;;;;;5065025;28;20552;-59
2023/03/23 10:09:39;;;;;;;8.60;2.73;;;13.10;99.90;;;;;;5057588;28;20870;-61
2023/03/23 10:12:17;;;;;;;6.17;2.73;;;13.10;99.90;;;;;;5058278;28;20462;-58
2023/03/23 10:14:59;;;;;;;9.03;3.70;;;13.00;99.90;;;;;;5057700;28;20472;-58
2023/03/23 10:17:31;;;;;;;4.33;2.20;;;13.00;99.90;;;;;;5058892;28;20450;-58
2023/03/23 10:20:17;;;;;;;9.30;3.73;;;13.10;99.90;;;;;;5057791;28;20470;-58
2023/03/23 10:22:50;;;;;;;5.33;2.60;;;13.30;99.90;;;;;;5055359;28;20898;-59
2023/03/23 10:25:20;;;;;;;12.10;3.57;;;13.40;99.90;;;;;;5058662;28;20758;-59
2023/03/23 10:27:53;;;;;;;6.37;3.70;;;13.20;99.90;;;;;;5074997;28;20478;-60
2023/03/23 10:30:26;;;;;;;7.23;3.33;;;13.10;99.90;;;;;;5058690;28;20461;-59
2023/03/23 10:32:57;;;;;;;6.43;2.73;;;12.90;99.90;;;;;;5058491;28;20600;-61
2023/03/23 10:35:30;;;;;;;5.83;2.90;;;12.80;99.90;;;;;;5057851;28;20498;-62
2023/03/23 10:38:02;;;;;;;5.77;2.97;;;12.70;99.90;;;;;;5054579;28;20833;-56
2023/03/23 10:40:32;;;;;;;4.73;2.60;;;12.70;99.90;;;;;;5053907;28;20466;-59
2023/03/23 10:42:59;;;;;;;5.60;2.40;;;12.70;99.90;;;;;;5056647;28;20473;-60
2023/03/23 10:45:29;;;;;;;3.40;2.30;;;12.70;99.90;;;;;;5055644;28;20520;-63
2023/03/23 10:48:02;;;;;;;4.30;2.50;;;12.20;99.90;;;;;;5055865;28;20459;-60
2023/03/23 10:50:37;;;;;;;2.20;2.00;;;11.60;99.90;;;;;;5054009;28;20457;-62
2023/03/23 10:53:15;;;;;;;3.43;2.00;;;11.50;1.00;;;;;;5053706;28;20463;-60
2023/03/23 10:55:44;;;;;;;4.40;2.40;;;11.50;1.00;;;;;;5056319;28;20494;-65
2023/03/23 10:58:13;;;;;;;2.53;1.93;;;11.30;1.00;;;;;;5054075;28;20552;-64
2023/03/23 11:00:46;;;;;;;4.90;2.13;;;11.20;1.00;;;;;;5052550;28;20886;-65
2023/03/23 11:03:39;;;;;;;3.27;2.07;;;11.20;1.00;;;;;;5050092;28;20470;-64
2023/03/23 11:06:10;;;;;;;3.43;2.30;;;11.20;1.00;;;;;;5051258;28;20826;-62
2023/03/23 11:08:39;;;;;;;5.13;1.93;;;11.10;1.00;;;;;;5051656;28;20942;-64
2023/03/23 11:11:16;;;;;;;2.17;1.73;;;10.90;1.00;;;;;;5054430;28;20538;-63
2023/03/23 11:13:45;;;;;;;4.00;2.07;;;10.80;1.00;;;;;;5048110;28;20474;-64
2023/03/23 11:16:24;;;;;;;3.57;2.57;;;10.80;1.00;;;;;;5054233;28;20490;-64
2023/03/23 11:18:52;;;;;;;3.57;2.20;;;10.90;1.00;;;;;;5060746;28;20468;-63
2023/03/23 11:21:23;;;;;;;3.20;2.00;;;10.90;1.00;;;;;;5049648;28;20461;-64
2023/03/23 11:23:53;;;;;;;3.07;2.00;;;11.00;1.00;;;;;;5054029;28;20455;-64
2023/03/23 11:26:24;;;;;;;2.67;1.80;;;10.90;1.00;;;;;;5053191;28;20458;-64
2023/03/23 11:28:56;;;;;;;2.90;2.17;;;10.90;1.00;;;;;;5056712;28;20478;-64
2023/03/23 11:31:25;;;;;;;4.70;2.23;;;10.80;1.00;;;;;;5056339;28;20461;-63
2023/03/23 11:33:57;;;;;;;3.10;1.70;;;10.80;1.00;;;;;;5053244;28;20450;-65
2023/03/23 11:36:34;;;;;;;3.23;1.93;;;10.80;1.00;;;;;;5058560;28;20465;-65
2023/03/23 11:39:04;;;;;;;3.63;2.33;;;10.80;1.00;;;;;;5053275;28;20481;-63
2023/03/23 11:41:36;;;;;;;3.77;2.00;;;10.70;1.00;;;;;;5056038;28;20532;-64
2023/03/23 11:44:12;;;;;;;3.90;2.10;;;10.70;1.00;;;;;;5053791;28;20479;-63
2023/03/23 11:46:50;;;;;;;2.53;1.90;;;10.70;1.00;;;;;;5059406;28;20462;-63
2023/03/23 11:49:26;;;;;;;3.67;2.30;;;10.50;1.00;;;;;;5058989;28;20556;-63
2023/03/23 11:52:00;;;;;;;3.23;2.63;;;10.50;1.00;;;;;;5056330;28;20478;-63
2023/03/23 11:54:33;;;;;;;4.10;2.50;;;10.60;1.00;;;;;;5054766;28;20496;-63
2023/03/23 11:57:00;;;;;;;4.53;2.70;;;10.70;1.00;;;;;;5053551;28;20476;-63
2023/03/23 11:59:30;;;;;;;3.57;3.00;;;10.80;1.00;;;;;;5055311;28;20466;-63
2023/03/23 12:02:04;;;;;;;5.17;3.27;;;10.80;1.00;;;;;;5055455;28;20516;-64
2023/03/23 12:04:51;;;;;;;4.00;2.70;;;10.80;1.00;;;;;;5058670;28;20526;-63
2023/03/23 12:07:48;;;;;;;7.07;3.30;;;10.70;1.00;;;;;;5055642;28;20485;-64
2023/03/23 12:10:26;;;;;;;3.30;2.53;;;10.60;1.00;;;;;;5056345;28;20462;-64
2023/03/23 12:13:04;;;;;;;3.20;2.43;;;10.60;6.90;;;;;;5054782;28;20450;-64
2023/03/23 12:15:39;;;;;;;4.60;2.70;;;10.90;99.90;;;;;;5041853;28;20766;-64
2023/03/23 12:18:16;;;;;;;6.30;2.97;;;11.20;73.20;;;;;;5054209;28;20470;-64
2023/03/23 12:20:58;;;;;;;3.90;2.90;;;11.40;1.00;;;;;;5057448;28;20460;-64
2023/03/23 12:23:33;;;;;;;3.90;2.90;;;11.50;1.00;;;;;;5058163;28;20496;-64
2023/03/23 12:26:21;;;;;;;4.97;3.17;;;11.60;1.00;;;;;;5059164;28;20450;-64
2023/03/23 12:29:13;;;;;;;4.70;2.90;;;11.60;1.00;;;;;;5055176;28;20498;-65
2023/03/23 12:31:50;;;;;;;4.90;3.73;;;11.60;1.00;;;;;;5055716;28;20485;-65
2023/03/23 12:34:27;;;;;;;4.87;4.17;;;11.50;1.00;;;;;;5052444;28;20567;-65
2023/03/23 12:37:09;;;;;;;4.60;4.10;;;11.50;1.00;;;;;;5053729;28;20489;-65
2023/03/23 12:40:08;;;;;;;4.40;3.93;;;11.50;1.00;;;;;;5052678;28;20926;-65
2023/03/23 12:42:44;;;;;;;4.53;4.00;;;11.40;1.00;;;;;;5046512;28;20466;-65
2023/03/23 12:45:22;;;;;;;6.47;4.17;;;11.50;1.00;;;;;;5050792;28;20530;-65
2023/03/23 12:47:53;;;;;;;5.47;4.70;;;11.50;1.00;;;;;;5053713;28;20539;-65
2023/03/23 12:50:28;;;;;;;5.93;4.47;;;11.30;1.00;;;;;;5059697;28;20477;-64
2023/03/23 12:53:00;;;;;;;6.97;5.10;;;11.20;1.00;;;;;;5060487;28;20471;-64
2023/03/23 12:55:36;;;;;;;5.43;4.27;;;11.10;1.00;;;;;;5057616;28;20469;-65
2023/03/23 12:58:08;;;;;;;7.30;4.80;;;11.20;10.70;;;;;;5050506;28;20574;-65
2023/03/23 13:00:49;;;;;;;6.63;5.50;;;11.40;90.20;;;;;;5052336;28;20470;-65
2023/03/23 13:03:23;;;;;;;5.63;5.03;;;11.70;99.90;;;;;;5055136;28;20882;-65
2023/03/23 13:05:55;;;;;;;5.93;4.97;;;12.00;79.30;;;;;;5054045;28;20527;-65
2023/03/23 13:08:27;;;;;;;6.10;5.03;;;12.00;1.00;;;;;;5058628;28;20919;-64
2023/03/23 13:10:59;;;;;;;7.17;5.43;;;12.00;1.00;;;;;;5066932;28;20473;-65